MGA weather

Augusto C. Sandino (Managua) International Airport
Managua, Managua, Nicaragua

Public forecast

Using degrees Celsius for public forecast. Weather courtesy of forecast.io.

Current aviation weather report (METAR) for Augusto C. Sandino (Managua) International Airport

Retrieved 2020/01/26 17:00 UTC (20 minutes ago):

MNMG 261700Z 09012KT 9999 FEW023 31/21 Q1014 A2996 NOSIG

Aviation forecast (TAF) for Augusto C. Sandino (Managua) International Airport

Retrieved 2020/01/26 12:19 UTC (5 hours ago):

TAF MNMG 260945Z 2612/2712 VRB06KT 9999 FEW023 BECMG 2615/2620 10010KT 9999 FEW023 SCT300 TEMPO 2620/2703 13008KT